Time;durP1;ratioP1;P1;durP2;ratioP2;P2;SDS_P1;SDS_P2;PMS_P1;PMS_P2;Temp;Humidity;BMP_temperature;BMP_pressure;BME280_temperature;BME280_humidity;BME280_pressure;Samples;Min_cycle;Max_cycle;Signal;HPM_P1;HPM_P2
2022/07/22 00:01:00;;;;;;;;;;;;;;;;;;5102908;28;19916;-63
2022/07/22 00:03:26;;;;;;;;;;;;;;;;;;5102744;28;19926;-62
2022/07/22 00:05:52;;;;;;;;;;;;;;;;;;5102368;28;19930;-62
2022/07/22 00:08:18;;;;;;;;;;;;;;;;;;5103684;28;19920;-60
2022/07/22 00:10:43;;;;;;;;;;;;;;;;;;5100191;28;19982;-60
2022/07/22 00:13:09;;;;;;;;;;;;;;;;;;5100095;28;19916;-62
2022/07/22 00:15:35;;;;;;;;;;;;;;;;;;5102611;28;19915;-62
2022/07/22 00:18:01;;;;;;;;;;;;;;;;;;5093814;28;19920;-62
2022/07/22 00:20:27;;;;;;;;;;;;;;;;;;5090073;28;20412;-63
2022/07/22 00:22:53;;;;;;;;;;;;;;;;;;5069507;28;19985;-61
2022/07/22 00:25:19;;;;;;;;;;;;;;;;;;5087875;28;20315;-62
2022/07/22 00:27:45;;;;;;;;;;;;;;;;;;5089058;28;20754;-62
2022/07/22 00:30:11;;;;;;;;;;;;;;;;;;5089464;28;20003;-61
2022/07/22 00:32:36;;;;;;;;;;;;;;;;;;5088246;28;19927;-61
2022/07/22 00:35:02;;;;;;;;;;;;;;;;;;5089224;28;19916;-62
2022/07/22 00:37:28;;;;;;;;;;;;;;;;;;5089466;28;19931;-62
2022/07/22 00:39:54;;;;;;;;;;;;;;;;;;5077758;28;19921;-62
2022/07/22 00:42:20;;;;;;;;;;;;;;;;;;5085544;28;19923;-61
2022/07/22 00:44:46;;;;;;;;;;;;;;;;;;5088869;28;19941;-62
2022/07/22 00:47:12;;;;;;;;;;;;;;;;;;5088411;28;19928;-61
2022/07/22 00:49:38;;;;;;;;;;;;;;;;;;5094770;28;19949;-60
2022/07/22 00:52:05;;;;;;;;;;;;;;;;;;5091096;28;20018;-62
2022/07/22 00:54:31;;;;;;;;;;;;;;;;;;5089219;28;20030;-62
2022/07/22 00:56:57;;;;;;;;;;;;;;;;;;5088642;28;19923;-62
2022/07/22 00:59:23;;;;;;;;;;;;;;;;;;5089850;28;19920;-61
2022/07/22 01:01:49;;;;;;;;;;;;;;;;;;5090140;28;19920;-62
2022/07/22 01:04:15;;;;;;;;;;;;;;;;;;5088507;28;20333;-62
2022/07/22 01:06:44;;;;;;;;;;;;;;;;;;5088557;28;19920;-61
2022/07/22 01:09:10;;;;;;;;;;;;;;;;;;5089160;28;19922;-62
2022/07/22 01:11:36;;;;;;;;;;;;;;;;;;5081978;28;20046;-61
2022/07/22 01:14:02;;;;;;;;;;;;;;;;;;5088248;28;19927;-62
2022/07/22 01:16:28;;;;;;;;;;;;;;;;;;5088323;28;19916;-63
2022/07/22 01:18:53;;;;;;;;;;;;;;;;;;5084782;28;19923;-62
2022/07/22 01:21:19;;;;;;;;;;;;;;;;;;5080898;28;19916;-62
2022/07/22 01:23:45;;;;;;;;;;;;;;;;;;5083591;28;19919;-62
2022/07/22 01:26:12;;;;;;;;;;;;;;;;;;5087488;28;19969;-61
2022/07/22 01:28:38;;;;;;;;;;;;;;;;;;5087324;28;19920;-62
2022/07/22 01:31:04;;;;;;;;;;;;;;;;;;5085493;28;19923;-62
2022/07/22 01:33:30;;;;;;;;;;;;;;;;;;5067398;28;20627;-62
2022/07/22 01:35:56;;;;;;;;;;;;;;;;;;5080955;28;19920;-61
2022/07/22 01:38:22;;;;;;;;;;;;;;;;;;5088196;28;19920;-61
2022/07/22 01:40:48;;;;;;;;;;;;;;;;;;5076806;28;19923;-62
2022/07/22 01:43:17;;;;;;;;;;;;;;;;;;5084903;28;20371;-63
2022/07/22 01:45:43;;;;;;;;;;;;;;;;;;5085661;28;19975;-62
2022/07/22 01:48:09;;;;;;;;;;;;;;;;;;5076471;28;19963;-63
2022/07/22 01:50:35;;;;;;;;;;;;;;;;;;5078756;28;19919;-62
2022/07/22 01:53:01;;;;;;;;;;;;;;;;;;5087790;28;19916;-61
2022/07/22 01:55:27;;;;;;;;;;;;;;;;;;5087254;28;19923;-62
2022/07/22 01:57:53;;;;;;;;;;;;;;;;;;5085483;28;19920;-63
2022/07/22 02:00:19;;;;;;;;;;;;;;;;;;5085702;28;19924;-61
2022/07/22 02:02:45;;;;;;;;;;;;;;;;;;5086874;28;20006;-61
2022/07/22 02:05:11;;;;;;;;;;;;;;;;;;5086990;28;19916;-61
2022/07/22 02:07:37;;;;;;;;;;;;;;;;;;5086801;28;20509;-63
2022/07/22 02:10:02;;;;;;;;;;;;;;;;;;5087479;28;19920;-61
2022/07/22 02:12:28;;;;;;;;;;;;;;;;;;5079649;28;19920;-60
2022/07/22 02:14:54;;;;;;;;;;;;;;;;;;5086971;28;19926;-61
2022/07/22 02:17:20;;;;;;;;;;;;;;;;;;5086938;28;19919;-62
2022/07/22 02:19:46;;;;;;;;;;;;;;;;;;5086283;28;20012;-58
2022/07/22 02:22:12;;;;;;;;;;;;;;;;;;5086838;28;20079;-61
2022/07/22 02:24:38;;;;;;;;;;;;;;;;;;5086952;28;20019;-59
2022/07/22 02:27:04;;;;;;;;;;;;;;;;;;5086272;28;19924;-62
2022/07/22 02:29:30;;;;;;;;;;;;;;;;;;5087741;28;20003;-61
2022/07/22 02:31:55;;;;;;;;;;;;;;;;;;5077596;28;19974;-62
2022/07/22 02:34:21;;;;;;;;;;;;;;;;;;5066648;28;19920;-62
2022/07/22 02:36:47;;;;;;;;;;;;;;;;;;5066122;28;20342;-62
2022/07/22 02:39:13;;;;;;;;;;;;;;;;;;5065973;28;19923;-60
2022/07/22 02:41:39;;;;;;;;;;;;;;;;;;5076793;28;19920;-57
2022/07/22 02:44:05;;;;;;;;;;;;;;;;;;5086639;28;19946;-63
2022/07/22 02:46:31;;;;;;;;;;;;;;;;;;5086796;28;19928;-61
2022/07/22 02:48:57;;;;;;;;;;;;;;;;;;5085514;28;19951;-62
2022/07/22 02:51:23;;;;;;;;;;;;;;;;;;5086098;28;20018;-62
2022/07/22 02:53:48;;;;;;;;;;;;;;;;;;5086285;28;19920;-62
2022/07/22 02:56:14;;;;;;;;;;;;;;;;;;5086108;28;19923;-61
2022/07/22 02:58:40;;;;;;;;;;;;;;;;;;5086224;28;19973;-61
2022/07/22 03:01:06;;;;;;;;;;;;;;;;;;5085799;28;19989;-61
2022/07/22 03:03:32;;;;;;;;;;;;;;;;;;5085787;28;19916;-62
2022/07/22 03:05:58;;;;;;;;;;;;;;;;;;5085808;28;19919;-63
2022/07/22 03:08:25;;;;;;;;;;;;;;;;;;5086412;28;19964;-62
2022/07/22 03:10:51;;;;;;;;;;;;;;;;;;5082790;28;20376;-61
2022/07/22 03:13:16;;;;;;;;;;;;;;;;;;5085525;28;19923;-61
2022/07/22 03:15:42;;;;;;;;;;;;;;;;;;5083471;28;19954;-61
2022/07/22 03:18:08;;;;;;;;;;;;;;;;;;5085681;28;19916;-61
2022/07/22 03:20:34;;;;;;;;;;;;;;;;;;5085289;28;19965;-62
2022/07/22 03:23:00;;;;;;;;;;;;;;;;;;5082384;28;20002;-62
2022/07/22 03:25:26;;;;;;;;;;;;;;;;;;5085915;28;19916;-62
2022/07/22 03:27:52;;;;;;;;;;;;;;;;;;5086046;28;19923;-62
2022/07/22 03:30:18;;;;;;;;;;;;;;;;;;5085764;28;20015;-60
2022/07/22 03:32:46;;;;;;;;;;;;;;;;;;5083185;28;20027;-63
2022/07/22 03:35:12;;;;;;;;;;;;;;;;;;5086198;28;19927;-62
2022/07/22 03:37:38;;;;;;;;;;;;;;;;;;5085833;28;19915;-61
2022/07/22 03:40:04;;;;;;;;;;;;;;;;;;5086209;28;20013;-63
2022/07/22 03:42:30;;;;;;;;;;;;;;;;;;5079105;28;19916;-63
2022/07/22 03:44:56;;;;;;;;;;;;;;;;;;5085396;28;20277;-63
2022/07/22 03:47:22;;;;;;;;;;;;;;;;;;5085843;28;19924;-62
2022/07/22 03:49:48;;;;;;;;;;;;;;;;;;5083668;28;20033;-62
2022/07/22 03:52:14;;;;;;;;;;;;;;;;;;5085860;28;19920;-61
2022/07/22 03:54:40;;;;;;;;;;;;;;;;;;5089587;28;20033;-61
2022/07/22 03:57:06;;;;;;;;;;;;;;;;;;5089319;28;19920;-60
2022/07/22 03:59:32;;;;;;;;;;;;;;;;;;5088560;28;19916;-62
2022/07/22 04:01:58;;;;;;;;;;;;;;;;;;5089270;28;19920;-59
2022/07/22 04:04:24;;;;;;;;;;;;;;;;;;5089869;28;19923;-62
2022/07/22 04:06:51;;;;;;;;;;;;;;;;;;5081983;28;19924;-62
2022/07/22 04:09:17;;;;;;;;;;;;;;;;;;5080013;28;20476;-62
2022/07/22 04:11:42;;;;;;;;;;;;;;;;;;5082714;28;19916;-60
2022/07/22 04:14:08;;;;;;;;;;;;;;;;;;5089206;28;19958;-61
2022/07/22 04:16:34;;;;;;;;;;;;;;;;;;5089387;28;19919;-61
2022/07/22 04:19:00;;;;;;;;;;;;;;;;;;5089389;28;19916;-62
2022/07/22 04:21:27;;;;;;;;;;;;;;;;;;5089746;28;19939;-61
2022/07/22 04:23:53;;;;;;;;;;;;;;;;;;5088904;28;20010;-61
2022/07/22 04:26:18;;;;;;;;;;;;;;;;;;5089268;28;20431;-61
2022/07/22 04:28:44;;;;;;;;;;;;;;;;;;5089612;28;19916;-62
2022/07/22 04:31:10;;;;;;;;;;;;;;;;;;5086189;28;19920;-60
2022/07/22 04:33:36;;;;;;;;;;;;;;;;;;5079889;28;19922;-61
2022/07/22 04:36:02;;;;;;;;;;;;;;;;;;5089169;28;19920;-63
2022/07/22 04:38:28;;;;;;;;;;;;;;;;;;5089168;28;19923;-62
2022/07/22 04:40:54;;;;;;;;;;;;;;;;;;5079442;28;20431;-62
2022/07/22 04:43:20;;;;;;;;;;;;;;;;;;5086618;28;19920;-60
2022/07/22 04:45:46;;;;;;;;;;;;;;;;;;5089636;28;20328;-61
2022/07/22 04:48:12;;;;;;;;;;;;;;;;;;5088686;28;19923;-62
2022/07/22 04:50:38;;;;;;;;;;;;;;;;;;5087263;28;19915;-62
2022/07/22 04:53:04;;;;;;;;;;;;;;;;;;5088888;28;20402;-62
2022/07/22 04:55:29;;;;;;;;;;;;;;;;;;5088881;28;20006;-62
2022/07/22 04:57:55;;;;;;;;;;;;;;;;;;5089013;28;19916;-60
2022/07/22 05:00:21;;;;;;;;;;;;;;;;;;5088563;28;19943;-61
2022/07/22 05:02:47;;;;;;;;;;;;;;;;;;5089228;28;19912;-59
2022/07/22 05:05:13;;;;;;;;;;;;;;;;;;5088121;28;19942;-62
2022/07/22 05:07:39;;;;;;;;;;;;;;;;;;5086860;28;19954;-61
2022/07/22 05:10:05;;;;;;;;;;;;;;;;;;5087198;28;20414;-62
2022/07/22 05:12:31;;;;;;;;;;;;;;;;;;5081708;28;19920;-61
2022/07/22 05:14:56;;;;;;;;;;;;;;;;;;5088264;28;19966;-63
2022/07/22 05:17:22;;;;;;;;;;;;;;;;;;5088230;28;20287;-61
2022/07/22 05:19:48;;;;;;;;;;;;;;;;;;5087782;28;19916;-61
2022/07/22 05:22:14;;;;;;;;;;;;;;;;;;5087944;28;19916;-61
2022/07/22 05:24:40;;;;;;;;;;;;;;;;;;5087727;28;20603;-61
2022/07/22 05:27:06;;;;;;;;;;;;;;;;;;5087871;28;19924;-58
2022/07/22 05:29:32;;;;;;;;;;;;;;;;;;5087871;28;19973;-62
2022/07/22 05:31:58;;;;;;;;;;;;;;;;;;5084833;28;19916;-62
2022/07/22 05:34:24;;;;;;;;;;;;;;;;;;5087423;28;19959;-62
2022/07/22 05:36:50;;;;;;;;;;;;;;;;;;5087615;28;19920;-62
2022/07/22 05:39:15;;;;;;;;;;;;;;;;;;5088056;28;19923;-61
2022/07/22 05:41:41;;;;;;;;;;;;;;;;;;5082317;28;20362;-62
2022/07/22 05:44:07;;;;;;;;;;;;;;;;;;5086280;28;19977;-64
2022/07/22 05:46:33;;;;;;;;;;;;;;;;;;5087106;28;19924;-62
2022/07/22 05:48:59;;;;;;;;;;;;;;;;;;5077402;28;19921;-62
2022/07/22 05:51:25;;;;;;;;;;;;;;;;;;5082452;28;19942;-60
2022/07/22 05:53:51;;;;;;;;;;;;;;;;;;5085531;28;19920;-61
2022/07/22 05:56:17;;;;;;;;;;;;;;;;;;5085667;28;20655;-60
2022/07/22 05:58:43;;;;;;;;;;;;;;;;;;5086952;28;19915;-60
2022/07/22 06:01:09;;;;;;;;;;;;;;;;;;5086138;28;19943;-62
2022/07/22 06:03:35;;;;;;;;;;;;;;;;;;5085437;28;19923;-60
2022/07/22 06:06:02;;;;;;;;;;;;;;;;;;5085126;28;19920;-62
2022/07/22 06:08:28;;;;;;;;;;;;;;;;;;5087588;28;20343;-61
2022/07/22 06:10:53;;;;;;;;;;;;;;;;;;5082206;28;20474;-62
2022/07/22 06:13:19;;;;;;;;;;;;;;;;;;5085161;28;19916;-62
2022/07/22 06:15:45;;;;;;;;;;;;;;;;;;5076817;28;19923;-62
2022/07/22 06:18:11;;;;;;;;;;;;;;;;;;5077479;28;19926;-62
2022/07/22 06:20:37;;;;;;;;;;;;;;;;;;5078149;28;19924;-62
2022/07/22 06:23:03;;;;;;;;;;;;;;;;;;5084193;28;19920;-62
2022/07/22 06:25:29;;;;;;;;;;;;;;;;;;5080744;28;19919;-62
2022/07/22 06:27:55;;;;;;;;;;;;;;;;;;5077308;28;20019;-62
2022/07/22 06:30:21;;;;;;;;;;;;;;;;;;5077711;28;20056;-62
2022/07/22 06:32:47;;;;;;;;;;;;;;;;;;5077064;28;19923;-63
2022/07/22 06:35:13;;;;;;;;;;;;;;;;;;5079995;28;19920;-61
2022/07/22 06:37:39;;;;;;;;;;;;;;;;;;5086431;28;19920;-62
2022/07/22 06:40:05;;;;;;;;;;;;;;;;;;5079671;28;19923;-61
2022/07/22 06:42:31;;;;;;;;;;;;;;;;;;5077804;28;19950;-63
2022/07/22 06:44:57;;;;;;;;;;;;;;;;;;5080796;28;19920;-62
2022/07/22 06:47:23;;;;;;;;;;;;;;;;;;5085742;28;19927;-60
2022/07/22 06:49:49;;;;;;;;;;;;;;;;;;5078117;28;19927;-56
2022/07/22 06:52:15;;;;;;;;;;;;;;;;;;5086391;28;19944;-58
2022/07/22 06:54:41;;;;;;;;;;;;;;;;;;5086198;28;19916;-60
2022/07/22 06:57:06;;;;;;;;;;;;;;;;;;5086352;28;19919;-60
2022/07/22 06:59:32;;;;;;;;;;;;;;;;;;5086368;28;19994;-60
2022/07/22 07:01:58;;;;;;;;;;;;;;;;;;5085932;28;19969;-59
2022/07/22 07:04:24;;;;;;;;;;;;;;;;;;5085636;28;19927;-59
2022/07/22 07:06:50;;;;;;;;;;;;;;;;;;5086065;28;20612;-60
2022/07/22 07:09:16;;;;;;;;;;;;;;;;;;5085965;28;19920;-58
2022/07/22 07:11:42;;;;;;;;;;;;;;;;;;5079138;28;19966;-60
2022/07/22 07:14:08;;;;;;;;;;;;;;;;;;5086268;28;19916;-59
2022/07/22 07:16:34;;;;;;;;;;;;;;;;;;5084230;28;19923;-61
2022/07/22 07:19:00;;;;;;;;;;;;;;;;;;5085938;28;19920;-61
2022/07/22 07:21:26;;;;;;;;;;;;;;;;;;5085906;28;20010;-56
2022/07/22 07:23:52;;;;;;;;;;;;;;;;;;5086803;28;19972;-58
2022/07/22 07:26:18;;;;;;;;;;;;;;;;;;5085453;28;20840;-60
2022/07/22 07:28:44;;;;;;;;;;;;;;;;;;5089358;28;19916;-59
2022/07/22 07:31:10;;;;;;;;;;;;;;;;;;5089313;28;19912;-59
2022/07/22 07:33:36;;;;;;;;;;;;;;;;;;5089451;28;19920;-60
2022/07/22 07:36:02;;;;;;;;;;;;;;;;;;5087298;28;19912;-60
2022/07/22 07:38:28;;;;;;;;;;;;;;;;;;5088775;28;19920;-59
2022/07/22 07:40:54;;;;;;;;;;;;;;;;;;5081479;28;19920;-58
2022/07/22 07:43:20;;;;;;;;;;;;;;;;;;5089573;28;20454;-59
2022/07/22 07:45:46;;;;;;;;;;;;;;;;;;5086284;28;19920;-59
2022/07/22 07:48:12;;;;;;;;;;;;;;;;;;5083719;28;20682;-62
2022/07/22 07:50:38;;;;;;;;;;;;;;;;;;5084701;28;19916;-63
2022/07/22 07:53:04;;;;;;;;;;;;;;;;;;5090371;28;19923;-62
2022/07/22 07:55:30;;;;;;;;;;;;;;;;;;5088808;28;19962;-62
2022/07/22 07:57:56;;;;;;;;;;;;;;;;;;5088466;28;19916;-62
2022/07/22 08:00:22;;;;;;;;;;;;;;;;;;5085844;28;19973;-62
2022/07/22 08:02:48;;;;;;;;;;;;;;;;;;5088236;28;20012;-62
2022/07/22 08:05:13;;;;;;;;;;;;;;;;;;5087969;28;20505;-62
2022/07/22 08:07:39;;;;;;;;;;;;;;;;;;5088251;28;19924;-63
2022/07/22 08:10:05;;;;;;;;;;;;;;;;;;5089050;28;19916;-63
2022/07/22 08:12:31;;;;;;;;;;;;;;;;;;5088068;28;19932;-62
2022/07/22 08:14:57;;;;;;;;;;;;;;;;;;5088187;28;19920;-63
2022/07/22 08:17:23;;;;;;;;;;;;;;;;;;5087378;28;19939;-62
2022/07/22 08:19:49;;;;;;;;;;;;;;;;;;5087523;28;19916;-61
2022/07/22 08:22:15;;;;;;;;;;;;;;;;;;5079743;28;19924;-62
2022/07/22 08:24:41;;;;;;;;;;;;;;;;;;5084806;28;19923;-63
2022/07/22 08:27:07;;;;;;;;;;;;;;;;;;5088452;28;19924;-62
2022/07/22 08:29:33;;;;;;;;;;;;;;;;;;5088217;28;19916;-61
2022/07/22 08:31:59;;;;;;;;;;;;;;;;;;5085822;28;19916;-63
2022/07/22 08:34:25;;;;;;;;;;;;;;;;;;5089122;28;20609;-63
2022/07/22 08:36:50;;;;;;;;;;;;;;;;;;5088426;28;19919;-62
2022/07/22 08:39:16;;;;;;;;;;;;;;;;;;5082009;28;19916;-61
2022/07/22 08:41:42;;;;;;;;;;;;;;;;;;5084284;28;19920;-63
2022/07/22 08:44:08;;;;;;;;;;;;;;;;;;5088162;28;19916;-62
2022/07/22 08:46:34;;;;;;;;;;;;;;;;;;5088696;28;19931;-62
2022/07/22 08:49:00;;;;;;;;;;;;;;;;;;5088147;28;19916;-62
2022/07/22 08:51:26;;;;;;;;;;;;;;;;;;5088297;28;20585;-63
2022/07/22 08:53:52;;;;;;;;;;;;;;;;;;5088983;28;19916;-62
2022/07/22 08:56:18;;;;;;;;;;;;;;;;;;5088239;28;19927;-62
2022/07/22 08:58:44;;;;;;;;;;;;;;;;;;5088509;28;19969;-63
2022/07/22 09:01:10;;;;;;;;;;;;;;;;;;5088183;28;19915;-60
2022/07/22 09:03:36;;;;;;;;;;;;;;;;;;5087496;28;19916;-62
2022/07/22 09:06:02;;;;;;;;;;;;;;;;;;5084871;28;19927;-63
2022/07/22 09:08:28;;;;;;;;;;;;;;;;;;5086445;28;19923;-63
2022/07/22 09:10:54;;;;;;;;;;;;;;;;;;5084237;28;19970;-63
2022/07/22 09:13:20;;;;;;;;;;;;;;;;;;5085376;28;19955;-63
2022/07/22 09:15:46;;;;;;;;;;;;;;;;;;5085440;28;19916;-60
2022/07/22 09:18:12;;;;;;;;;;;;;;;;;;5085465;28;19927;-63
2022/07/22 09:20:38;;;;;;;;;;;;;;;;;;5086087;28;19916;-62
2022/07/22 09:23:04;;;;;;;;;;;;;;;;;;5087399;28;20402;-63
2022/07/22 09:25:30;;;;;;;;;;;;;;;;;;5087022;28;19915;-63
2022/07/22 09:27:56;;;;;;;;;;;;;;;;;;5085206;28;19923;-65
2022/07/22 09:30:21;;;;;;;;;;;;;;;;;;5086683;28;19920;-62
2022/07/22 09:32:48;;;;;;;;;;;;;;;;;;5085886;28;20007;-62
2022/07/22 09:35:14;;;;;;;;;;;;;;;;;;5084344;28;19919;-62
2022/07/22 09:37:39;;;;;;;;;;;;;;;;;;5077859;28;20454;-61
2022/07/22 09:40:05;;;;;;;;;;;;;;;;;;5083980;28;19923;-62
2022/07/22 09:42:31;;;;;;;;;;;;;;;;;;5078492;28;19939;-62
2022/07/22 09:44:57;;;;;;;;;;;;;;;;;;5081773;28;19916;-62
2022/07/22 09:47:23;;;;;;;;;;;;;;;;;;5080261;28;20483;-62
2022/07/22 09:49:49;;;;;;;;;;;;;;;;;;5078833;28;19999;-62
2022/07/22 09:52:15;;;;;;;;;;;;;;;;;;5086819;28;19923;-62
2022/07/22 09:54:41;;;;;;;;;;;;;;;;;;5087514;28;19977;-62
2022/07/22 09:57:07;;;;;;;;;;;;;;;;;;5087691;28;19919;-63
2022/07/22 09:59:33;;;;;;;;;;;;;;;;;;5079752;28;20000;-62
2022/07/22 10:01:59;;;;;;;;;;;;;;;;;;5074667;28;20466;-63
2022/07/22 10:04:25;;;;;;;;;;;;;;;;;;5076032;28;19920;-63
2022/07/22 10:06:51;;;;;;;;;;;;;;;;;;5073863;28;19920;-62
2022/07/22 10:09:17;;;;;;;;;;;;;;;;;;5078095;28;19923;-61
2022/07/22 10:11:46;;;;;;;;;;;;;;;;;;5077758;28;20082;-62
2022/07/22 10:14:13;;;;;;;;;;;;;;;;;;5079068;28;19984;-63
2022/07/22 10:16:38;;;;;;;;;;;;;;;;;;5076790;28;19916;-62
2022/07/22 10:19:04;;;;;;;;;;;;;;;;;;5078176;28;19923;-62
2022/07/22 10:21:30;;;;;;;;;;;;;;;;;;5077701;28;19916;-63
2022/07/22 10:23:56;;;;;;;;;;;;;;;;;;5076107;28;19921;-63
2022/07/22 10:26:22;;;;;;;;;;;;;;;;;;5077151;28;19924;-62
2022/07/22 10:28:48;;;;;;;;;;;;;;;;;;5077942;28;19923;-63
2022/07/22 10:31:14;;;;;;;;;;;;;;;;;;5075322;28;19920;-59
2022/07/22 10:33:40;;;;;;;;;;;;;;;;;;5075558;28;20001;-64
2022/07/22 10:36:06;;;;;;;;;;;;;;;;;;5081272;28;19939;-62
2022/07/22 10:38:32;;;;;;;;;;;;;;;;;;5076710;28;19923;-60
2022/07/22 10:40:58;;;;;;;;;;;;;;;;;;5078401;28;19920;-62
2022/07/22 10:43:24;;;;;;;;;;;;;;;;;;5074352;28;19920;-62
2022/07/22 10:45:50;;;;;;;;;;;;;;;;;;5080000;28;19916;-63
2022/07/22 10:48:16;;;;;;;;;;;;;;;;;;5074648;28;20622;-63
2022/07/22 10:50:42;;;;;;;;;;;;;;;;;;5078057;28;20029;-65
2022/07/22 10:53:08;;;;;;;;;;;;;;;;;;5076446;28;19916;-62
2022/07/22 10:55:34;;;;;;;;;;;;;;;;;;5082047;28;20623;-62
2022/07/22 10:58:00;;;;;;;;;;;;;;;;;;5076697;28;19916;-61
2022/07/22 11:00:26;;;;;;;;;;;;;;;;;;5077693;28;19963;-62
2022/07/22 11:02:52;;;;;;;;;;;;;;;;;;5075635;28;19916;-59
2022/07/22 11:05:18;;;;;;;;;;;;;;;;;;5076288;28;19924;-61
2022/07/22 11:07:44;;;;;;;;;;;;;;;;;;5077974;28;19927;-58
2022/07/22 11:10:10;;;;;;;;;;;;;;;;;;5077491;28;20400;-61
2022/07/22 11:12:36;;;;;;;;;;;;;;;;;;5077780;28;19934;-60
2022/07/22 11:15:02;;;;;;;;;;;;;;;;;;5079402;28;19920;-62
2022/07/22 11:17:28;;;;;;;;;;;;;;;;;;5074778;28;19924;-61
2022/07/22 11:19:54;;;;;;;;;;;;;;;;;;5080437;28;19920;-61
2022/07/22 11:22:19;;;;;;;;;;;;;;;;;;5075512;28;19974;-61
2022/07/22 11:24:45;;;;;;;;;;;;;;;;;;5074926;28;19923;-61
2022/07/22 11:27:11;;;;;;;;;;;;;;;;;;5076713;28;20296;-61
2022/07/22 11:29:39;;;;;;;;;;;;;;;;;;5077185;28;19919;-61
2022/07/22 11:32:05;;;;;;;;;;;;;;;;;;5072754;28;19923;-61
2022/07/22 11:34:31;;;;;;;;;;;;;;;;;;5077082;28;20240;-61
2022/07/22 11:36:57;;;;;;;;;;;;;;;;;;5075562;28;19927;-62
2022/07/22 11:39:23;;;;;;;;;;;;;;;;;;5074970;28;19924;-58
2022/07/22 11:41:48;;;;;;;;;;;;;;;;;;5079208;28;19931;-60
2022/07/22 11:44:14;;;;;;;;;;;;;;;;;;5078259;28;19924;-60
2022/07/22 11:46:40;;;;;;;;;;;;;;;;;;5081602;28;19980;-61
2022/07/22 11:49:06;;;;;;;;;;;;;;;;;;5075025;28;19920;-62
2022/07/22 11:51:32;;;;;;;;;;;;;;;;;;5075972;28;19916;-61
2022/07/22 11:53:58;;;;;;;;;;;;;;;;;;5076478;28;20588;-62
2022/07/22 11:56:24;;;;;;;;;;;;;;;;;;5080159;28;19920;-61
2022/07/22 11:58:53;;;;;;;;;;;;;;;;;;5075056;28;19916;-61
2022/07/22 12:01:19;;;;;;;;;;;;;;;;;;5077188;28;19964;-61
2022/07/22 12:03:45;;;;;;;;;;;;;;;;;;5080201;28;20418;-61
2022/07/22 12:06:11;;;;;;;;;;;;;;;;;;5078408;28;19928;-62
2022/07/22 12:08:37;;;;;;;;;;;;;;;;;;5075189;28;20431;-61
2022/07/22 12:11:03;;;;;;;;;;;;;;;;;;5076533;28;19915;-61
2022/07/22 12:13:29;;;;;;;;;;;;;;;;;;5080333;28;20342;-59
2022/07/22 12:15:55;;;;;;;;;;;;;;;;;;5080089;28;19939;-62
2022/07/22 12:18:21;;;;;;;;;;;;;;;;;;5079107;28;20025;-61
2022/07/22 12:20:47;;;;;;;;;;;;;;;;;;5082546;28;19950;-62
2022/07/22 12:23:13;;;;;;;;;;;;;;;;;;5078325;28;19971;-61
2022/07/22 12:25:39;;;;;;;;;;;;;;;;;;5078937;28;19946;-61
2022/07/22 12:28:05;;;;;;;;;;;;;;;;;;5078881;28;19917;-62
2022/07/22 12:30:31;;;;;;;;;;;;;;;;;;5079227;28;19933;-62
2022/07/22 12:32:59;;;;;;;;;;;;;;;;;;5075827;28;19920;-59
2022/07/22 12:35:26;;;;;;;;;;;;;;;;;;5079457;28;19986;-62
2022/07/22 12:37:52;;;;;;;;;;;;;;;;;;5075415;28;19915;-61
2022/07/22 12:40:18;;;;;;;;;;;;;;;;;;5078095;28;20452;-62
2022/07/22 12:42:44;;;;;;;;;;;;;;;;;;5081114;28;19920;-62
2022/07/22 12:45:10;;;;;;;;;;;;;;;;;;5079048;28;20093;-61
2022/07/22 12:47:36;;;;;;;;;;;;;;;;;;5078887;28;19966;-62
2022/07/22 12:50:02;;;;;;;;;;;;;;;;;;5080279;28;19923;-61
2022/07/22 12:52:28;;;;;;;;;;;;;;;;;;5081551;28;19947;-60
2022/07/22 12:54:54;;;;;;;;;;;;;;;;;;5079321;28;19920;-62
2022/07/22 12:57:20;;;;;;;;;;;;;;;;;;5079108;28;19948;-61
2022/07/22 12:59:46;;;;;;;;;;;;;;;;;;5079701;28;19920;-61
2022/07/22 13:02:12;;;;;;;;;;;;;;;;;;5077652;28;20336;-60
2022/07/22 13:04:37;;;;;;;;;;;;;;;;;;5077605;28;19922;-61
2022/07/22 13:07:03;;;;;;;;;;;;;;;;;;5079837;28;19927;-62
2022/07/22 13:09:29;;;;;;;;;;;;;;;;;;5078648;28;19955;-62
2022/07/22 13:11:55;;;;;;;;;;;;;;;;;;5079784;28;20001;-61
2022/07/22 13:14:21;;;;;;;;;;;;;;;;;;5078005;28;20299;-62
2022/07/22 13:16:47;;;;;;;;;;;;;;;;;;5078239;28;19923;-62
2022/07/22 13:19:13;;;;;;;;;;;;;;;;;;5078640;28;19916;-62
2022/07/22 13:21:39;;;;;;;;;;;;;;;;;;5078707;28;19916;-62
2022/07/22 13:24:05;;;;;;;;;;;;;;;;;;5077613;28;19916;-62
2022/07/22 13:26:31;;;;;;;;;;;;;;;;;;5078660;28;20379;-62
2022/07/22 13:28:57;;;;;;;;;;;;;;;;;;5078589;28;19920;-62
2022/07/22 13:31:24;;;;;;;;;;;;;;;;;;5079526;28;19916;-62
2022/07/22 13:33:50;;;;;;;;;;;;;;;;;;5077959;28;19924;-61
2022/07/22 13:36:16;;;;;;;;;;;;;;;;;;5076037;28;19973;-62
2022/07/22 13:38:41;;;;;;;;;;;;;;;;;;5079778;28;19920;-62
2022/07/22 13:41:16;;;;;;;;;;;;;;;;;;5076813;28;19920;-62
2022/07/22 13:43:42;;;;;;;;;;;;;;;;;;5077730;28;19962;-62
2022/07/22 13:46:08;;;;;;;;;;;;;;;;;;5080452;28;19920;-61
2022/07/22 13:48:34;;;;;;;;;;;;;;;;;;5077661;28;20205;-62
2022/07/22 13:51:00;;;;;;;;;;;;;;;;;;5079702;28;20003;-62
2022/07/22 13:53:26;;;;;;;;;;;;;;;;;;5080097;28;20042;-61
2022/07/22 13:55:52;;;;;;;;;;;;;;;;;;5076130;28;19917;-61
2022/07/22 13:58:18;;;;;;;;;;;;;;;;;;5078991;28;19920;-61
2022/07/22 14:00:44;;;;;;;;;;;;;;;;;;5075379;28;20347;-62
2022/07/22 14:03:10;;;;;;;;;;;;;;;;;;5076282;28;19924;-61
2022/07/22 14:05:36;;;;;;;;;;;;;;;;;;5075395;28;19943;-62
2022/07/22 14:08:02;;;;;;;;;;;;;;;;;;5076829;28;19924;-62
2022/07/22 14:10:28;;;;;;;;;;;;;;;;;;5074108;28;19923;-61
2022/07/22 14:12:54;;;;;;;;;;;;;;;;;;5081841;28;20027;-61
2022/07/22 14:15:20;;;;;;;;;;;;;;;;;;5075956;28;19993;-62
2022/07/22 14:17:46;;;;;;;;;;;;;;;;;;5082545;28;19920;-62
2022/07/22 14:20:12;;;;;;;;;;;;;;;;;;5076597;28;19924;-62
2022/07/22 14:22:38;;;;;;;;;;;;;;;;;;5081332;28;19916;-62
2022/07/22 14:25:04;;;;;;;;;;;;;;;;;;5077613;28;19915;-62
2022/07/22 14:27:30;;;;;;;;;;;;;;;;;;5077796;28;19924;-62
2022/07/22 14:29:56;;;;;;;;;;;;;;;;;;5077844;28;19926;-62
2022/07/22 14:32:22;;;;;;;;;;;;;;;;;;5076437;28;20107;-63
2022/07/22 14:34:48;;;;;;;;;;;;;;;;;;5077529;28;20563;-62
2022/07/22 14:37:14;;;;;;;;;;;;;;;;;;5074982;28;19920;-62
2022/07/22 14:39:40;;;;;;;;;;;;;;;;;;5077828;28;19916;-59
2022/07/22 14:42:06;;;;;;;;;;;;;;;;;;5077811;28;19920;-61
2022/07/22 14:44:31;;;;;;;;;;;;;;;;;;5076751;28;19922;-61
2022/07/22 14:46:57;;;;;;;;;;;;;;;;;;5074662;28;19967;-62
2022/07/22 14:49:23;;;;;;;;;;;;;;;;;;5077160;28;20320;-61
2022/07/22 14:51:49;;;;;;;;;;;;;;;;;;5077620;28;19946;-61
2022/07/22 14:54:15;;;;;;;;;;;;;;;;;;5077627;28;19988;-62
2022/07/22 14:56:41;;;;;;;;;;;;;;;;;;5075886;28;19916;-61
2022/07/22 14:59:07;;;;;;;;;;;;;;;;;;5077698;28;19946;-62
2022/07/22 15:01:33;;;;;;;;;;;;;;;;;;5076019;28;19916;-62
2022/07/22 15:03:59;;;;;;;;;;;;;;;;;;5076930;28;19916;-61
2022/07/22 15:06:24;;;;;;;;;;;;;;;;;;5076195;28;19943;-62
2022/07/22 15:08:50;;;;;;;;;;;;;;;;;;5080263;28;20003;-62
2022/07/22 15:11:16;;;;;;;;;;;;;;;;;;5076160;28;20563;-62
2022/07/22 15:13:42;;;;;;;;;;;;;;;;;;5082230;28;19956;-62
2022/07/22 15:16:09;;;;;;;;;;;;;;;;;;5074548;28;19974;-61
2022/07/22 15:18:35;;;;;;;;;;;;;;;;;;5078598;28;19927;-61
2022/07/22 15:21:01;;;;;;;;;;;;;;;;;;5074312;28;19939;-62
2022/07/22 15:23:30;;;;;;;;;;;;;;;;;;5071974;28;20290;-61
2022/07/22 15:25:56;;;;;;;;;;;;;;;;;;5080824;28;19942;-62
2022/07/22 15:28:22;;;;;;;;;;;;;;;;;;5080527;28;19924;-62
2022/07/22 15:30:48;;;;;;;;;;;;;;;;;;5081147;28;19939;-61
2022/07/22 15:33:14;;;;;;;;;;;;;;;;;;5076526;28;20402;-61
2022/07/22 15:35:40;;;;;;;;;;;;;;;;;;5084453;28;19951;-62
2022/07/22 15:38:06;;;;;;;;;;;;;;;;;;5085073;28;20069;-62
2022/07/22 15:40:32;;;;;;;;;;;;;;;;;;5079788;28;19970;-62
2022/07/22 15:42:58;;;;;;;;;;;;;;;;;;5084764;28;19916;-62
2022/07/22 15:45:24;;;;;;;;;;;;;;;;;;5080939;28;19973;-62
2022/07/22 15:47:50;;;;;;;;;;;;;;;;;;5073384;28;20350;-60
2022/07/22 15:50:20;;;;;;;;;;;;;;;;;;5085494;28;19920;-62
2022/07/22 15:52:46;;;;;;;;;;;;;;;;;;5087758;28;19998;-62
2022/07/22 15:55:12;;;;;;;;;;;;;;;;;;5088754;28;20002;-62
2022/07/22 16:00:23;;;;;;;;;;;;;;;;;;5089140;28;19923;-63
2022/07/22 16:02:49;;;;;;;;;;;;;;;;;;5081516;28;19969;-62
2022/07/22 16:05:15;;;;;;;;;;;;;;;;;;5089014;28;19993;-62
2022/07/22 16:07:40;;;;;;;;;;;;;;;;;;5086489;28;19920;-62
2022/07/22 16:10:06;;;;;;;;;;;;;;;;;;5087251;28;19967;-63
2022/07/22 16:12:32;;;;;;;;;;;;;;;;;;5089858;28;19977;-62
2022/07/22 16:14:58;;;;;;;;;;;;;;;;;;5084140;28;19926;-63
2022/07/22 16:17:24;;;;;;;;;;;;;;;;;;5087825;28;19975;-61
2022/07/22 16:19:50;;;;;;;;;;;;;;;;;;5088585;28;19951;-62
2022/07/22 16:22:16;;;;;;;;;;;;;;;;;;5085656;28;19928;-62
2022/07/22 16:24:42;;;;;;;;;;;;;;;;;;5084445;28;19919;-62
2022/07/22 16:27:08;;;;;;;;;;;;;;;;;;5088437;28;19919;-62
2022/07/22 16:29:34;;;;;;;;;;;;;;;;;;5087815;28;19966;-62
2022/07/22 16:32:00;;;;;;;;;;;;;;;;;;5084154;28;19927;-62
2022/07/22 16:34:25;;;;;;;;;;;;;;;;;;5088807;28;20707;-62
2022/07/22 16:36:51;;;;;;;;;;;;;;;;;;5086758;28;20022;-62
2022/07/22 16:39:18;;;;;;;;;;;;;;;;;;5088385;28;19919;-61